WetterOnline ( https://www.wetteronline.de )

Wetter aktuell Altusried

Aktuelles Wetter: Kempten (705m)

6-stündlich | Neueste Meldungen
Ortszeit Temperatur Wetter
So, 16.06. 2:00 12.0° C leichter Regen
Sa, 15.06. 20:00 13.0° C Regen
Sa, 15.06. 14:00 14.1° C bedeckt
Sa, 15.06. 8:00 13.4° C leichter Regen
Sa, 15.06. 2:00 10.7° C wolkig
Fr, 14.06. 20:00 17.9° C bewölkt
Fr, 14.06. 14:00 16.7° C bewölkt
Fr, 14.06. 8:00 11.1° C bewölkt
Ortszeit Temperatur Wetter
So, 16.06. 2:00 12.0° C leichter Regen
So, 16.06. 1:50 12.0° C leichter Regen
So, 16.06. 1:40 12.0° C leichter Regen
So, 16.06. 1:30 12.2° C leichter Regen
So, 16.06. 1:20 12.2° C leichter Regen
So, 16.06. 1:10 12.2° C leichter Regen
So, 16.06. 1:00 12.2° C Sprühregen
So, 16.06. 0:30 12.3° C leichter Regen
So, 16.06. 0:00 12.4° C bewölkt
Sa, 15.06. 23:30 12.5° C bedeckt
Sa, 15.06. 23:00 12.5° C bedeckt
Ortszeit Relative Feuchte Sichtweite
So, 16.06. 2:00 95% 22 km
Sa, 15.06. 20:00 93% 6 km
Sa, 15.06. 14:00 76% >70 km
Sa, 15.06. 8:00 84% 22 km
Sa, 15.06. 2:00 95% 25 km
Fr, 14.06. 20:00 62% >70 km
Fr, 14.06. 14:00 66% 65 km
Fr, 14.06. 8:00 77% 65 km
Ortszeit Relative Feuchte Sichtweite
So, 16.06. 2:00 95% 22 km
So, 16.06. 1:50 95% -
So, 16.06. 1:40 96% -
So, 16.06. 1:30 94% 19 km
So, 16.06. 1:20 94% -
So, 16.06. 1:10 94% -
So, 16.06. 1:00 93% 30 km
So, 16.06. 0:30 92% 35 km
So, 16.06. 0:00 91% 50 km
Sa, 15.06. 23:30 90% 55 km
Sa, 15.06. 23:00 92% 55 km
Ortszeit Niederschlagsmenge Niederschlagsart
So, 16.06. 2:00 1 l/m2 in 6 Std. Regen
Sa, 15.06. 20:00 3 l/m2 in 12 Std. Regen
Sa, 15.06. 14:00 2 l/m2 in 6 Std. Regen
Sa, 15.06. 8:00 0.3 l/m2 in 12 Std. Regen
Sa, 15.06. 2:00 0.0 l/m2 in 6 Std. -
Fr, 14.06. 20:00 0.1 l/m2 in 12 Std. Regen
Fr, 14.06. 14:00 0.1 l/m2 in 6 Std. Regen
Fr, 14.06. 8:00 0.0 l/m2 in 12 Std. -
Ortszeit Niederschlagsmenge Niederschlagsart
So, 16.06. 2:00 0.4 l/m2 in 1 Std. Regen
So, 16.06. 1:50 keine Meldung -
So, 16.06. 1:40 keine Meldung -
So, 16.06. 1:30 0.1 l/m2 in 30 Min -
So, 16.06. 1:20 keine Meldung -
So, 16.06. 1:10 keine Meldung -
So, 16.06. 1:00 <0.05 l/m2 in 1 Std. Regen
So, 16.06. 0:30 <0.05 l/m2 in 30 Min -
So, 16.06. 0:00 <0.05 l/m2 in 1 Std. Regen
Sa, 15.06. 23:30 0.0 l/m2 in 30 Min -
Sa, 15.06. 23:00 0.0 l/m2 in 1 Std. Regen
Ortszeit Stärke Spitze Richtung
km/h Bft. km/h Grad Sektor
So, 16.06. 2:00 7 2 22 160° S
Sa, 15.06. 20:00 9 2 28 180° S
Sa, 15.06. 14:00 6 1 28 260° W
Sa, 15.06. 8:00 11 2 32 270° W
Sa, 15.06. 2:00 4 1 11 160° S
Fr, 14.06. 20:00 6 1 26 360° N
Fr, 14.06. 14:00 11 2 29 160° S
Fr, 14.06. 8:00 7 2 22 160° S
Ortszeit Stärke Spitze Richtung
km/h Bft. km/h Grad Sektor
So, 16.06. 2:00 7 2 18 160° S
So, 16.06. 1:50 7 2 - 160° S
So, 16.06. 1:40 6 1 - 170° S
So, 16.06. 1:30 7 2 18 180° S
So, 16.06. 1:20 7 2 - 180° S
So, 16.06. 1:10 7 2 - 180° S
So, 16.06. 1:00 7 2 17 180° S
So, 16.06. 0:30 7 2 18 180° S
So, 16.06. 0:00 7 2 18 170° S
Sa, 15.06. 23:30 7 2 14 160° S
Sa, 15.06. 23:00 7 2 14 180° S
Ortszeit Untergrenze Bedeckung Gattung
total tief tief mittel hoch
So, 16.06. 2:00 1170 m 8/8 8/8 - - -
Sa, 15.06. 20:00 1500 m 8/8 8/8 - - -
Sa, 15.06. 14:00 540 m 8/8 8/8 - - -
Sa, 15.06. 8:00 690 m 8/8 8/8 - - -
Sa, 15.06. 2:00 2400 m 7/8 1/8 - - -
Fr, 14.06. 20:00 2100 m 7/8 7/8 - - -
Fr, 14.06. 14:00 2100 m 7/8 7/8 - - -
Fr, 14.06. 8:00 2100 m 8/8 7/8 - - -
Ortszeit Bedeckungsgrad in Achtel und Wolkenuntergrenze
So, 16.06. 2:00 3(1170m) 8(1500m)
So, 16.06. 1:50 3(1170m) 8(1500m)
So, 16.06. 1:40 8
So, 16.06. 1:30 7(1080m) 8(1800m)
So, 16.06. 1:20 7(1080m) 8(1800m)
So, 16.06. 1:10 8
So, 16.06. 1:00 5(930m) 6(1140m) 8(1800m)
So, 16.06. 0:30 5(990m) 7(1230m) 8(1800m)
So, 16.06. 0:00 2(1230m) 7(1800m)
Sa, 15.06. 23:30 8(2100m)
Sa, 15.06. 23:00 4(1500m) 8(2400m) 8(3300m)
Ortszeit Luftdruck NN (hPa) Tendenz (hPa in 3 Std.)
So, 16.06. 2:00 1013 + 0,4
Sa, 15.06. 20:00 1012 + 0,3
Sa, 15.06. 14:00 1012 0,0
Sa, 15.06. 8:00 1012 + 4,9
Sa, 15.06. 2:00 1010 - 2,0
Fr, 14.06. 20:00 1011 - 0,6
Fr, 14.06. 14:00 1014 - 0,7
Fr, 14.06. 8:00 1015 - 0,2
Ortszeit Luftdruck NN (hPa) Tendenz (hPa in 3 Std.)
So, 16.06. 2:00 1013 + 0,4
So, 16.06. 1:50 1013 keine Meldung
So, 16.06. 1:40 1013 keine Meldung
So, 16.06. 1:30 1013 + 0,5
So, 16.06. 1:20 1013 keine Meldung
So, 16.06. 1:10 1013 keine Meldung
So, 16.06. 1:00 1013 + 0,6
So, 16.06. 0:30 1013 + 1,2
So, 16.06. 0:00 1013 + 1,2
Sa, 15.06. 23:30 1013 + 1,2
Sa, 15.06. 23:00 1013 + 1,0
Ortszeit Schneehöhe (cm)
So, 16.06. 2:00 0
Sa, 15.06. 20:00 0
Sa, 15.06. 14:00 0
Sa, 15.06. 8:00 0
Sa, 15.06. 2:00 0
Fr, 14.06. 20:00 0
Fr, 14.06. 14:00 0
Fr, 14.06. 8:00 0
Ortszeit Schneehöhe (cm)
So, 16.06. 2:00 0
So, 16.06. 1:50 0
So, 16.06. 1:40 -
So, 16.06. 1:30 0
So, 16.06. 1:20 0
So, 16.06. 1:10 -
So, 16.06. 1:00 0
So, 16.06. 0:30 0
So, 16.06. 0:00 0
Sa, 15.06. 23:30 0
Sa, 15.06. 23:00 0
Link zu dieser Seite / Seite empfehlen

Das Wetter in ...